Time;durP1;ratioP1;P1;durP2;ratioP2;P2;SDS_P1;SDS_P2;PMS_P1;PMS_P2;Temp;Humidity;BMP_temperature;BMP_pressure;BME280_temperature;BME280_humidity;BME280_pressure;Samples;Min_cycle;Max_cycle;Signal;HPM_P1;HPM_P2
2023/11/21 00:01:40;;;;;;;;;;;;;;;15.50;45.17;100530.66;5098024;28;1037;-42
2023/11/21 00:04:07;;;;;;;;;;;;;;;15.26;45.08;100531.47;5098090;28;986;-41
2023/11/21 00:06:32;;;;;;;;;;;;;;;14.89;44.95;100534.88;5097417;28;1910;-44
2023/11/21 00:08:58;;;;;;;;;;;;;;;14.68;45.25;100530.06;5097752;28;1022;-42
2023/11/21 00:11:25;;;;;;;;;;;;;;;15.81;44.46;100526.72;5097188;28;1022;-43
2023/11/21 00:13:50;;;;;;;;;;;;;;;15.02;45.13;100534.88;5097618;28;1066;-46
2023/11/21 00:16:16;;;;;;;;;;;;;;;14.86;44.52;100536.88;5097384;28;2539;-45
2023/11/21 00:18:42;;;;;;;;;;;;;;;14.77;44.86;100535.69;5097138;28;1240;-43
2023/11/21 00:21:08;;;;;;;;;;;;;;;15.14;45.28;100538.47;5097660;28;998;-47
2023/11/21 00:23:34;;;;;;;;;;;;;;;14.79;45.09;100536.44;5097192;28;1158;-45
2023/11/21 00:25:59;;;;;;;;;;;;;;;15.23;45.65;100541.44;5097370;28;1904;-45
2023/11/21 00:28:26;;;;;;;;;;;;;;;15.42;44.98;100540.94;5097592;28;1038;-43
2023/11/21 00:30:51;;;;;;;;;;;;;;;14.97;44.99;100538.78;5129744;27;1046;-44
2023/11/21 00:33:17;;;;;;;;;;;;;;;14.74;44.63;100534.09;5097387;28;1082;-44
2023/11/21 00:35:42;;;;;;;;;;;;;;;14.62;43.85;100530.50;5097689;28;1109;-42
2023/11/21 00:38:08;;;;;;;;;;;;;;;14.54;43.87;100528.38;5097244;28;999;-42
2023/11/21 00:40:34;;;;;;;;;;;;;;;15.41;45.20;100536.63;5097424;28;1097;-41
2023/11/21 00:43:00;;;;;;;;;;;;;;;15.24;44.98;100541.31;5096789;28;1115;-45
2023/11/21 00:45:26;;;;;;;;;;;;;;;14.84;44.92;100541.44;5096768;28;2450;-47
2023/11/21 00:47:51;;;;;;;;;;;;;;;14.57;44.87;100544.06;5095197;28;1006;-44
2023/11/21 00:50:17;;;;;;;;;;;;;;;15.35;45.19;100542.38;5097038;28;1199;-45
2023/11/21 00:52:42;;;;;;;;;;;;;;;15.40;44.89;100542.84;5096134;28;971;-47
2023/11/21 00:55:08;;;;;;;;;;;;;;;14.85;45.39;100537.84;5095367;28;1074;-44
2023/11/21 00:57:34;;;;;;;;;;;;;;;14.66;44.77;100537.25;5095525;28;2084;-44
2023/11/21 01:00:00;;;;;;;;;;;;;;;15.03;45.20;100533.91;5095378;28;2058;-44
2023/11/21 01:02:26;;;;;;;;;;;;;;;15.71;44.83;100529.19;5095704;28;1362;-43
2023/11/21 01:04:52;;;;;;;;;;;;;;;15.00;45.13;100533.28;5095870;28;1914;-43
2023/11/21 01:07:20;;;;;;;;;;;;;;;14.65;45.17;100530.28;5096292;28;1063;-43
2023/11/21 01:09:46;;;;;;;;;;;;;;;14.62;44.39;100538.44;5096697;28;1085;-43
2023/11/21 01:12:11;;;;;;;;;;;;;;;15.39;45.38;100535.88;5096919;28;1236;-46
2023/11/21 01:14:37;;;;;;;;;;;;;;;15.03;45.20;100533.91;5096692;28;1010;-43
2023/11/21 01:17:04;;;;;;;;;;;;;;;14.71;44.81;100534.31;5096634;28;2405;-43
2023/11/21 01:19:30;;;;;;;;;;;;;;;14.52;44.63;100540.00;5096844;28;1010;-43
2023/11/21 01:21:57;;;;;;;;;;;;;;;14.43;44.27;100534.38;5096116;28;1090;-45
2023/11/21 01:24:23;;;;;;;;;;;;;;;15.61;44.25;100534.34;5094967;28;1057;-45
2023/11/21 01:26:48;;;;;;;;;;;;;;;14.86;45.04;100536.88;5096114;28;2294;-45
2023/11/21 01:29:14;;;;;;;;;;;;;;;14.59;44.89;100536.00;5096198;28;1002;-44
2023/11/21 01:31:41;;;;;;;;;;;;;;;14.76;45.09;100536.66;5095850;28;1156;-45
2023/11/21 01:34:06;;;;;;;;;;;;;;;15.66;44.19;100527.72;5096342;28;1144;-45
2023/11/21 01:36:32;;;;;;;;;;;;;;;14.93;45.03;100531.06;5096392;28;1014;-46
2023/11/21 01:38:59;;;;;;;;;;;;;;;14.66;44.89;100531.13;5095857;28;1003;-43
2023/11/21 01:41:26;;;;;;;;;;;;;;;15.22;45.45;100527.31;5095888;28;1094;-45
2023/11/21 01:43:53;;;;;;;;;;;;;;;15.23;45.16;100531.66;5095865;28;1023;-42
2023/11/21 01:46:20;;;;;;;;;;;;;;;14.82;44.80;100523.00;5096090;28;2517;-44
2023/11/21 01:48:45;;;;;;;;;;;;;;;14.52;44.82;100524.97;5096084;28;1128;-42
2023/11/21 01:51:11;;;;;;;;;;;;;;;14.80;45.01;100516.97;5095273;28;1014;-42
2023/11/21 01:53:37;;;;;;;;;;;;;;;15.20;44.86;100525.75;5074273;28;1027;-42
2023/11/21 01:56:03;;;;;;;;;;;;;;;14.65;45.70;100522.34;5093192;28;1093;-42
2023/11/21 01:58:28;;;;;;;;;;;;;;;16.36;43.82;100515.63;5078026;28;1232;-43
2023/11/21 02:00:54;;;;;;;;;;;;;;;15.34;45.01;100514.16;5094571;28;1055;-44
2023/11/21 02:03:20;;;;;;;;;;;;;;;14.91;45.08;100513.59;5095926;28;1062;-44
2023/11/21 02:05:47;;;;;;;;;;;;;;;14.67;44.50;100515.16;5094395;28;1976;-43
2023/11/21 02:08:13;;;;;;;;;;;;;;;14.55;44.13;100518.63;5094141;28;1015;-44
2023/11/21 02:10:38;;;;;;;;;;;;;;;15.47;45.03;100519.41;5095375;28;1113;-44
2023/11/21 02:13:04;;;;;;;;;;;;;;;15.36;45.07;100520.19;5077523;28;1039;-45
2023/11/21 02:15:30;;;;;;;;;;;;;;;14.86;44.93;100519.22;5095820;28;2315;-42
2023/11/21 02:17:58;;;;;;;;;;;;;;;14.78;44.29;100525.00;5094443;28;1100;-42
2023/11/21 02:20:24;;;;;;;;;;;;;;;15.00;45.37;100515.59;5128291;27;1143;-45
2023/11/21 02:22:57;;;;;;;;;;;;;;;15.14;45.19;100521.72;5095698;28;1108;-43
2023/11/21 02:25:23;;;;;;;;;;;;;;;14.68;45.37;100523.94;5128561;28;1910;-42
2023/11/21 02:27:49;;;;;;;;;;;;;;;14.54;44.53;100523.09;5128621;28;1158;-44
2023/11/21 02:30:16;;;;;;;;;;;;;;;15.57;44.53;100512.50;5095393;28;1077;-43
2023/11/21 02:32:42;;;;;;;;;;;;;;;14.93;45.26;100522.28;5128025;28;1099;-45
2023/11/21 02:35:08;;;;;;;;;;;;;;;15.65;44.85;100525.19;5093713;28;1078;-43
2023/11/21 02:37:35;;;;;;;;;;;;;;;15.35;45.36;100522.00;5094132;28;1043;-43
2023/11/21 02:40:03;;;;;;;;;;;;;;;14.97;44.76;100515.81;5095334;28;1195;-44
2023/11/21 02:42:29;;;;;;;;;;;;;;;14.74;44.40;100515.56;5093742;28;1194;-47
2023/11/21 02:44:55;;;;;;;;;;;;;;;16.00;44.22;100518.28;5093904;28;1985;-43
2023/11/21 02:47:20;;;;;;;;;;;;;;;15.09;45.19;100521.19;5095406;28;2643;-45
2023/11/21 02:49:46;;;;;;;;;;;;;;;14.90;44.59;100517.16;5095520;28;1157;-45
2023/11/21 02:52:11;;;;;;;;;;;;;;;14.88;44.88;100524.41;5095194;28;1055;-43
2023/11/21 02:54:37;;;;;;;;;;;;;;;15.93;44.45;100525.84;5128010;28;1081;-42
2023/11/21 02:57:02;;;;;;;;;;;;;;;15.14;45.25;100522.56;5094997;28;1089;-43
2023/11/21 02:59:29;;;;;;;;;;;;;;;14.83;44.61;100527.34;5094124;28;1101;-44
2023/11/21 03:01:56;;;;;;;;;;;;;;;15.16;45.40;100533.88;5094984;28;1086;-44
2023/11/21 03:04:23;;;;;;;;;;;;;;;15.27;45.08;100533.16;5094106;28;1177;-47
2023/11/21 03:06:48;;;;;;;;;;;;;;;14.82;45.12;100541.53;5095406;28;2010;-42
2023/11/21 03:09:14;;;;;;;;;;;;;;;14.69;44.57;100545.03;5094892;28;1058;-43
2023/11/21 03:11:41;;;;;;;;;;;;;;;14.59;43.66;100549.25;5093926;28;2070;-44
2023/11/21 03:14:07;;;;;;;;;;;;;;;15.44;44.96;100549.66;5093956;28;1273;-44
2023/11/21 03:16:32;;;;;;;;;;;;;;;15.52;44.46;100549.94;5096730;28;1807;-44
2023/11/21 03:18:58;;;;;;;;;;;;;;;15.00;44.78;100549.16;5098747;28;1089;-44
2023/11/21 03:21:24;;;;;;;;;;;;;;;14.67;44.44;100543.41;5131265;27;1062;-45
2023/11/21 03:23:50;;;;;;;;;;;;;;;14.57;44.15;100549.34;5097734;28;1210;-45
2023/11/21 03:26:16;;;;;;;;;;;;;;;15.06;45.05;100548.75;5098925;28;1974;-43
2023/11/21 03:28:42;;;;;;;;;;;;;;;15.42;45.04;100549.75;5098481;28;1084;-42
2023/11/21 03:31:08;;;;;;;;;;;;;;;14.83;44.90;100545.06;5098544;28;1070;-42
2023/11/21 03:33:35;;;;;;;;;;;;;;;14.63;44.53;100547.25;5098622;28;1133;-43
2023/11/21 03:36:00;;;;;;;;;;;;;;;15.54;45.15;100539.22;5098443;28;1074;-46
2023/11/21 03:38:26;;;;;;;;;;;;;;;15.10;45.47;100538.81;5098277;28;1155;-45
2023/11/21 03:40:51;;;;;;;;;;;;;;;14.79;45.02;100536.44;5131243;27;1383;-47
2023/11/21 03:43:17;;;;;;;;;;;;;;;15.86;44.75;100532.53;5098417;28;1133;-44
2023/11/21 03:45:42;;;;;;;;;;;;;;;15.27;45.24;100533.16;5097935;28;2300;-44
2023/11/21 03:48:09;;;;;;;;;;;;;;;14.85;44.76;100541.34;5098080;28;1070;-42
2023/11/21 03:50:37;;;;;;;;;;;;;;;14.56;44.57;100531.75;5097083;28;1274;-46
2023/11/21 03:53:03;;;;;;;;;;;;;;;15.78;44.37;100530.47;5098214;28;1153;-43
2023/11/21 03:55:31;;;;;;;;;;;;;;;15.01;45.06;100537.63;5097936;28;1022;-44
2023/11/21 03:57:56;;;;;;;;;;;;;;;14.66;44.83;100547.03;5091841;28;883;-42
2023/11/21 04:00:22;;;;;;;;;;;;;;;14.56;44.42;100547.63;5098062;28;1086;-43
2023/11/21 04:02:47;;;;;;;;;;;;;;;15.78;44.76;100543.72;5098266;28;1185;-46
2023/11/21 04:05:13;;;;;;;;;;;;;;;15.01;45.05;100558.81;5097683;28;1906;-44
2023/11/21 04:07:38;;;;;;;;;;;;;;;14.75;44.79;100564.06;5098083;28;1138;-45
2023/11/21 04:10:06;;;;;;;;;;;;;;;14.94;45.27;100558.41;5097770;28;887;-48
2023/11/21 04:12:31;;;;;;;;;;;;;;;15.47;44.89;100551.22;5097714;28;1360;-43
2023/11/21 04:14:57;;;;;;;;;;;;;;;14.88;44.86;100543.75;5097988;28;1128;-44
2023/11/21 04:17:22;;;;;;;;;;;;;;;15.65;44.84;100535.78;5097703;28;2492;-43
2023/11/21 04:19:48;;;;;;;;;;;;;;;15.37;45.25;100543.94;5097635;28;1025;-44
2023/11/21 04:22:13;;;;;;;;;;;;;;;14.91;44.90;100540.06;5097327;28;1030;-45
2023/11/21 04:24:39;;;;;;;;;;;;;;;14.94;45.27;100545.16;5097286;28;1902;-45
2023/11/21 04:27:04;;;;;;;;;;;;;;;15.48;44.69;100560.88;5096644;28;1082;-44
2023/11/21 04:29:30;;;;;;;;;;;;;;;14.99;45.04;100551.00;5097247;28;1083;-43
2023/11/21 04:31:55;;;;;;;;;;;;;;;15.12;45.42;100547.47;5096888;28;1073;-44
2023/11/21 04:34:21;;;;;;;;;;;;;;;15.22;44.82;100550.31;5097210;28;894;-48
2023/11/21 04:36:46;;;;;;;;;;;;;;;14.87;44.48;100543.88;5096513;28;1045;-43
2023/11/21 04:39:12;;;;;;;;;;;;;;;14.65;44.24;100547.97;5097256;28;1065;-43
2023/11/21 04:41:39;;;;;;;;;;;;;;;15.93;44.26;100547.06;5095936;28;1260;-46
2023/11/21 04:44:05;;;;;;;;;;;;;;;15.19;45.13;100551.38;5097350;28;1225;-43
2023/11/21 04:46:31;;;;;;;;;;;;;;;16.05;44.40;100552.44;5100396;28;2096;-46
2023/11/21 04:48:57;;;;;;;;;;;;;;;16.45;43.41;100559.25;5097170;28;1058;-47
2023/11/21 04:51:23;;;;;;;;;;;;;;;15.51;44.75;100563.31;5097007;28;1065;-45
2023/11/21 04:53:49;;;;;;;;;;;;;;;15.12;44.74;100563.34;5097128;28;1073;-45
2023/11/21 04:56:15;;;;;;;;;;;;;;;15.59;43.00;100560.09;5095507;28;1498;-45
2023/11/21 04:58:41;;;;;;;;;;;;;;;15.71;41.94;100561.88;5123890;27;935;-50
2023/11/21 05:01:07;;;;;;;;;;;;;;;14.89;43.11;100571.97;5095569;28;1051;-45
2023/11/21 05:03:33;;;;;;;;;;;;;;;15.26;44.77;100565.91;5097006;28;1107;-57
2023/11/21 05:05:59;;;;;;;;;;;;;;;15.27;44.98;100559.66;5089629;28;1974;-55
2023/11/21 05:08:26;;;;;;;;;;;;;;;14.92;44.96;100562.94;5093474;28;1331;-46
2023/11/21 05:10:52;;;;;;;;;;;;;;;14.73;44.26;100553.56;5095316;28;993;-56
2023/11/21 05:13:18;;;;;;;;;;;;;;;15.77;44.51;100558.78;5094901;28;1194;-53
2023/11/21 05:15:44;;;;;;;;;;;;;;;15.01;45.38;100564.97;5099285;28;1981;-52
2023/11/21 05:18:10;;;;;;;;;;;;;;;14.81;44.41;100559.22;5096590;28;1105;-45
2023/11/21 05:20:35;;;;;;;;;;;;;;;14.69;44.10;100562.69;5095906;28;1002;-47
2023/11/21 05:23:01;;;;;;;;;;;;;;;15.47;45.07;100565.34;5096092;28;1125;-50
2023/11/21 05:25:27;;;;;;;;;;;;;;;15.11;44.96;100564.31;5096608;28;1906;-46
2023/11/21 05:27:53;;;;;;;;;;;;;;;16.13;44.44;100566.81;5096042;28;1127;-51
2023/11/21 05:30:18;;;;;;;;;;;;;;;17.04;43.00;100564.50;5096736;28;1142;-49
2023/11/21 05:32:46;;;;;;;;;;;;;;;16.52;44.19;100565.75;5096151;28;1193;-50
2023/11/21 05:35:15;;;;;;;;;;;;;;;16.04;44.75;100564.84;5096248;28;1040;-50
2023/11/21 05:37:41;;;;;;;;;;;;;;;15.65;45.34;100559.66;5100578;28;2184;-50
2023/11/21 05:40:07;;;;;;;;;;;;;;;15.58;45.79;100558.41;5096132;28;1085;-52
2023/11/21 05:42:33;;;;;;;;;;;;;;;16.77;43.20;100563.88;5095780;28;1010;-49
2023/11/21 05:44:59;;;;;;;;;;;;;;;16.83;42.73;100567.88;5089597;28;1977;-53
2023/11/21 05:47:26;;;;;;;;;;;;;;;16.14;44.04;100570.31;5095338;28;923;-49
2023/11/21 05:49:52;;;;;;;;;;;;;;;15.79;44.89;100562.19;5096678;28;1030;-57
2023/11/21 05:52:17;;;;;;;;;;;;;;;16.83;42.62;100586.50;5095019;28;1485;-54
2023/11/21 05:54:43;;;;;;;;;;;;;;;16.90;42.29;100582.38;5096021;28;1223;-54
2023/11/21 05:57:08;;;;;;;;;;;;;;;16.23;43.92;100576.78;5096026;28;1198;-54
2023/11/21 05:59:34;;;;;;;;;;;;;;;15.88;44.48;100583.69;5096018;28;1050;-57
2023/11/21 06:01:59;;;;;;;;;;;;;;;16.32;43.62;100583.19;5096493;28;1142;-57
2023/11/21 06:04:25;;;;;;;;;;;;;;;17.25;41.55;100584.13;5096412;28;854;-57
2023/11/21 06:06:53;;;;;;;;;;;;;;;16.52;42.80;100585.19;5095771;28;1984;-54
2023/11/21 06:09:19;;;;;;;;;;;;;;;16.14;44.09;100591.56;5096109;28;1147;-54
2023/11/21 06:11:44;;;;;;;;;;;;;;;16.79;42.66;100595.63;5086739;28;1170;-54
2023/11/21 06:14:10;;;;;;;;;;;;;;;17.06;41.79;100594.47;5092982;28;1222;-56
2023/11/21 06:16:36;;;;;;;;;;;;;;;16.37;43.37;100604.94;5086975;28;1094;-56
2023/11/21 06:19:02;;;;;;;;;;;;;;;16.07;43.83;100601.78;5096029;28;1066;-55
2023/11/21 06:21:27;;;;;;;;;;;;;;;16.09;43.78;100605.19;5096061;28;1062;-57
2023/11/21 06:23:53;;;;;;;;;;;;;;;17.16;41.67;100605.28;5095811;28;1132;-53
2023/11/21 06:26:18;;;;;;;;;;;;;;;16.76;42.57;100608.22;5095803;28;1902;-50
2023/11/21 06:28:44;;;;;;;;;;;;;;;16.31;43.32;100613.34;5095278;28;1181;-48
2023/11/21 06:31:10;;;;;;;;;;;;;;;16.02;43.91;100612.72;5096207;28;1098;-56
2023/11/21 06:33:36;;;;;;;;;;;;;;;16.02;44.21;100610.09;5095851;28;1110;-57
2023/11/21 06:36:05;;;;;;;;;;;;;;;17.23;41.51;100599.34;5095922;28;1086;-48
2023/11/21 06:38:32;;;;;;;;;;;;;;;16.69;42.44;100599.00;5095792;28;1034;-52
2023/11/21 06:40:58;;;;;;;;;;;;;;;16.28;43.25;100598.50;5095800;28;1062;-56
2023/11/21 06:43:23;;;;;;;;;;;;;;;16.27;43.66;100602.09;5095932;28;1201;-56
2023/11/21 06:45:49;;;;;;;;;;;;;;;17.37;41.10;100600.94;5095618;28;1965;-56
2023/11/21 06:48:14;;;;;;;;;;;;;;;16.67;42.49;100606.25;5096687;28;1053;-54
2023/11/21 06:50:40;;;;;;;;;;;;;;;16.26;43.61;100597.78;5096211;28;1190;-56
2023/11/21 06:53:07;;;;;;;;;;;;;;;16.26;43.48;100589.81;5099350;28;1304;-49
2023/11/21 06:55:32;;;;;;;;;;;;;;;17.32;41.20;100588.97;5096416;28;1366;-54
2023/11/21 06:58:00;;;;;;;;;;;;;;;16.61;42.72;100588.13;5099435;28;1277;-55
2023/11/21 07:00:25;;;;;;;;;;;;;;;16.23;43.44;100588.22;5099432;28;1122;-51
2023/11/21 07:02:51;;;;;;;;;;;;;;;16.03;43.77;100587.88;5099736;28;1221;-51
2023/11/21 07:05:20;;;;;;;;;;;;;;;17.07;41.86;100601.47;5099474;28;1975;-57
2023/11/21 07:07:46;;;;;;;;;;;;;;;17.00;41.61;100591.34;5099552;28;1063;-57
2023/11/21 07:10:11;;;;;;;;;;;;;;;16.38;43.26;100586.22;5098779;28;1265;-55
2023/11/21 07:12:37;;;;;;;;;;;;;;;16.11;43.46;100582.03;5088244;28;1045;-55
2023/11/21 07:15:05;;;;;;;;;;;;;;;15.90;44.27;100577.28;5079073;28;1127;-56
2023/11/21 07:17:31;;;;;;;;;;;;;;;17.18;41.58;100580.28;5091164;28;1249;-56
2023/11/21 07:19:58;;;;;;;;;;;;;;;16.75;42.37;100581.75;5093706;28;1169;-47
2023/11/21 07:22:23;;;;;;;;;;;;;;;16.31;43.16;100582.34;5079003;28;1269;-48
2023/11/21 07:24:52;;;;;;;;;;;;;;;16.01;43.99;100575.69;5078763;28;1897;-51
2023/11/21 07:27:17;;;;;;;;;;;;;;;16.48;43.30;100580.25;5065473;28;1127;-48
2023/11/21 07:29:43;;;;;;;;;;;;;;;17.40;40.99;100577.72;5076914;28;1216;-51
2023/11/21 07:32:09;;;;;;;;;;;;;;;16.61;42.41;100575.69;5069798;28;1089;-50
2023/11/21 07:34:35;;;;;;;;;;;;;;;16.23;43.23;100577.59;5069679;28;1270;-52
2023/11/21 07:37:01;;;;;;;;;;;;;;;16.03;43.82;100573.78;5064757;28;1166;-48
2023/11/21 07:39:27;;;;;;;;;;;;;;;15.88;44.36;100581.03;5069469;28;1087;-48
2023/11/21 07:41:52;;;;;;;;;;;;;;;17.08;41.75;100582.75;5071752;28;1070;-46
2023/11/21 07:44:19;;;;;;;;;;;;;;;16.64;42.67;100580.78;5064263;28;1123;-49
2023/11/21 07:46:46;;;;;;;;;;;;;;;16.15;43.50;100588.78;5094329;28;1897;-50
2023/11/21 07:49:11;;;;;;;;;;;;;;;15.99;43.85;100590.88;5085232;28;1130;-55
2023/11/21 07:51:37;;;;;;;;;;;;;;;16.99;41.97;100599.44;5079704;28;1065;-51
2023/11/21 07:54:02;;;;;;;;;;;;;;;16.93;41.96;100603.41;5089936;28;1054;-51
2023/11/21 07:56:28;;;;;;;;;;;;;;;16.35;43.03;100602.38;5092685;28;1042;-52
2023/11/21 07:58:54;;;;;;;;;;;;;;;16.13;43.82;100606.63;5078634;28;1047;-49
2023/11/21 08:01:19;;;;;;;;;;;;;;;16.01;44.07;100597.78;5073154;28;1086;-50
2023/11/21 08:03:45;;;;;;;;;;;;;;;17.21;41.46;100597.78;5066899;28;1095;-53
2023/11/21 08:06:10;;;;;;;;;;;;;;;16.64;42.46;100594.06;5070870;28;1906;-52
2023/11/21 08:08:36;;;;;;;;;;;;;;;16.19;43.35;100591.22;5070140;28;1293;-50
2023/11/21 08:11:03;;;;;;;;;;;;;;;15.99;44.21;100589.09;5079958;28;1206;-53
2023/11/21 08:13:30;;;;;;;;;;;;;;;16.96;42.26;100586.38;5088692;28;1331;-51
2023/11/21 08:16:02;;;;;;;;;;;;;;;17.23;41.28;100577.25;5096467;28;1035;-54
2023/11/21 08:18:27;;;;;;;;;;;;;;;16.49;42.87;100580.13;5086507;28;1398;-56
2023/11/21 08:20:55;;;;;;;;;;;;;;;16.23;43.60;100579.44;5090094;28;1106;-54
2023/11/21 08:23:20;;;;;;;;;;;;;;;15.97;44.01;100598.91;5084661;28;1383;-52
2023/11/21 08:25:46;;;;;;;;;;;;;;;16.91;42.28;100597.38;5089921;28;1906;-55
2023/11/21 08:28:12;;;;;;;;;;;;;;;16.97;41.74;100599.53;5091170;28;1292;-55
2023/11/21 08:30:37;;;;;;;;;;;;;;;16.40;43.17;100597.59;5090506;28;1138;-55
2023/11/21 08:33:03;;;;;;;;;;;;;;;16.12;43.51;100594.31;5081952;28;1670;-52
2023/11/21 08:35:29;;;;;;;;;;;;;;;16.83;42.43;100603.25;5091541;28;1135;-52
2023/11/21 08:37:55;;;;;;;;;;;;;;;17.04;41.69;100594.59;5082931;28;1114;-56
2023/11/21 08:40:21;;;;;;;;;;;;;;;16.46;42.95;100598.09;5087777;28;1137;-52
2023/11/21 08:42:46;;;;;;;;;;;;;;;16.21;43.29;100598.13;5097833;28;1123;-54
2023/11/21 08:45:12;;;;;;;;;;;;;;;17.11;41.76;100590.53;5090151;28;1974;-54
2023/11/21 08:47:38;;;;;;;;;;;;;;;16.80;42.38;100589.38;5097068;28;1038;-51
2023/11/21 08:50:07;;;;;;;;;;;;;;;16.39;43.02;100598.56;5085838;28;1408;-54
2023/11/21 08:52:33;;;;;;;;;;;;;;;16.07;43.67;100590.31;5081953;28;1170;-53
2023/11/21 08:55:02;;;;;;;;;;;;;;;16.17;43.80;100591.34;5095026;28;1163;-48
2023/11/21 08:57:28;;;;;;;;;;;;;;;17.27;41.26;100591.97;5097032;28;1039;-49
2023/11/21 08:59:55;;;;;;;;;;;;;;;16.59;42.71;100585.59;5097013;28;1035;-53
2023/11/21 09:02:22;;;;;;;;;;;;;;;16.21;43.53;100584.84;5097296;28;1066;-53
2023/11/21 09:04:48;;;;;;;;;;;;;;;17.22;41.54;100580.88;5093768;28;1034;-53
2023/11/21 09:07:13;;;;;;;;;;;;;;;16.97;41.93;100575.63;5097541;28;1974;-54
2023/11/21 09:09:39;;;;;;;;;;;;;;;16.41;43.20;100571.88;5085953;28;1181;-58
2023/11/21 09:12:04;;;;;;;;;;;;;;;16.18;43.66;100563.84;5096910;28;1178;-50
2023/11/21 09:14:30;;;;;;;;;;;;;;;16.04;43.79;100562.22;5084189;28;1336;-47
2023/11/21 09:16:56;;;;;;;;;;;;;;;15.93;44.26;100549.72;5089369;28;1046;-48
2023/11/21 09:19:21;;;;;;;;;;;;;;;17.10;41.91;100556.94;5081727;28;1157;-49
2023/11/21 09:21:47;;;;;;;;;;;;;;;16.99;41.71;100560.41;5078993;28;1109;-52
2023/11/21 09:24:12;;;;;;;;;;;;;;;16.40;42.98;100552.44;5088808;28;1091;-51
2023/11/21 09:26:38;;;;;;;;;;;;;;;16.20;43.30;100545.97;5078246;28;1967;-49
2023/11/21 09:29:04;;;;;;;;;;;;;;;15.99;44.20;100543.97;5079300;28;1082;-52
2023/11/21 09:31:31;;;;;;;;;;;;;;;16.99;42.25;100541.81;5077744;28;1117;-54
2023/11/21 09:33:57;;;;;;;;;;;;;;;16.90;42.09;100539.84;5077932;28;1042;-54
2023/11/21 09:36:27;;;;;;;;;;;;;;;16.38;43.00;100540.25;5078903;28;1046;-54
2023/11/21 09:38:55;;;;;;;;;;;;;;;16.54;43.13;100534.63;5076444;28;1046;-54
2023/11/21 09:41:27;;;;;;;;;;;;;;;17.23;41.24;100530.22;5086488;28;1297;-54
2023/11/21 09:43:53;;;;;;;;;;;;;;;16.59;42.84;100531.63;5095252;28;1376;-51
2023/11/21 09:46:21;;;;;;;;;;;;;;;16.25;43.63;100524.41;5095305;28;1913;-53
2023/11/21 09:48:51;;;;;;;;;;;;;;;16.03;44.13;100526.84;5094355;28;1127;-54
2023/11/21 09:51:17;;;;;;;;;;;;;;;16.63;42.78;100517.16;5095611;28;1320;-49
2023/11/21 09:53:43;;;;;;;;;;;;;;;17.46;41.03;100513.41;5119240;27;1058;-54
2023/11/21 09:56:10;;;;;;;;;;;;;;;16.72;42.32;100511.13;5089876;28;1102;-54
2023/11/21 09:58:35;;;;;;;;;;;;;;;16.36;43.37;100516.50;5077848;28;1122;-55
2023/11/21 10:01:03;;;;;;;;;;;;;;;16.11;44.14;100501.56;5089074;28;1071;-54
2023/11/21 10:03:28;;;;;;;;;;;;;;;16.91;42.21;100508.84;5077445;28;1058;-49
2023/11/21 10:05:54;;;;;;;;;;;;;;;17.16;41.45;100513.09;5077640;28;1914;-50
2023/11/21 10:08:19;;;;;;;;;;;;;;;16.57;42.69;100505.19;5078356;28;1055;-50
2023/11/21 10:10:46;;;;;;;;;;;;;;;16.24;43.29;100502.34;5095386;28;1042;-51
2023/11/21 10:13:12;;;;;;;;;;;;;;;16.24;43.80;100501.47;5096280;28;864;-51
2023/11/21 10:15:37;;;;;;;;;;;;;;;17.35;41.32;100496.50;5096205;28;1054;-50
2023/11/21 10:18:04;;;;;;;;;;;;;;;16.82;42.32;100499.75;5128622;28;1079;-51
2023/11/21 10:20:30;;;;;;;;;;;;;;;16.43;43.31;100492.97;5096570;28;1137;-53
2023/11/21 10:22:58;;;;;;;;;;;;;;;16.12;43.72;100498.78;5096597;28;1372;-52
2023/11/21 10:25:24;;;;;;;;;;;;;;;16.59;42.98;100495.28;5097899;28;1980;-51
2023/11/21 10:27:52;;;;;;;;;;;;;;;17.17;41.68;100497.97;5100171;28;1034;-51
2023/11/21 10:30:18;;;;;;;;;;;;;;;16.56;43.00;100495.53;5097986;28;1188;-50
2023/11/21 10:32:43;;;;;;;;;;;;;;;16.24;43.54;100486.41;5093439;28;1008;-51
2023/11/21 10:35:12;;;;;;;;;;;;;;;17.11;42.10;100488.69;5099421;28;1114;-48
2023/11/21 10:37:40;;;;;;;;;;;;;;;16.81;42.29;100480.34;5099683;28;1113;-49
2023/11/21 10:40:12;;;;;;;;;;;;;;;16.36;43.39;100491.75;5100037;28;1381;-48
2023/11/21 10:42:38;;;;;;;;;;;;;;;16.13;44.02;100479.25;5093869;28;1443;-46
2023/11/21 10:45:11;;;;;;;;;;;;;;;16.07;44.05;100484.16;5100721;28;1906;-50
2023/11/21 10:47:38;;;;;;;;;;;;;;;17.14;42.01;100480.47;5098667;28;1335;-52
2023/11/21 10:50:04;;;;;;;;;;;;;;;17.13;41.65;100478.78;5099497;28;1269;-52
2023/11/21 10:52:29;;;;;;;;;;;;;;;16.55;42.86;100480.53;5097504;28;1276;-51
2023/11/21 10:54:55;;;;;;;;;;;;;;;16.28;43.36;100473.75;5098855;28;1387;-51
2023/11/21 10:57:21;;;;;;;;;;;;;;;16.46;43.29;100481.25;5096894;28;1370;-49
2023/11/21 10:59:49;;;;;;;;;;;;;;;17.28;41.42;100474.06;5097960;28;1324;-52
2023/11/21 11:02:32;;;;;;;;;;;;;;;16.60;42.99;100469.59;5095749;28;1367;-50
2023/11/21 11:04:57;;;;;;;;;;;;;;;16.30;43.69;100457.72;5097356;28;1905;-51
2023/11/21 11:07:26;;;;;;;;;;;;;;;16.12;43.91;100461.66;5094300;28;1292;-50
2023/11/21 11:09:52;;;;;;;;;;;;;;;16.20;43.85;100468.19;5095782;28;1320;-49
2023/11/21 11:12:19;;;;;;;;;;;;;;;17.22;41.65;100464.75;5094810;28;1086;-49
2023/11/21 11:14:44;;;;;;;;;;;;;;;16.58;43.09;100464.38;5094709;28;1359;-49
2023/11/21 11:17:10;;;;;;;;;;;;;;;16.23;43.70;100455.50;5093365;28;1138;-50
2023/11/21 11:19:36;;;;;;;;;;;;;;;16.03;43.92;100449.09;5097778;28;1173;-50
2023/11/21 11:22:20;;;;;;;;;;;;;;;16.90;42.42;100449.53;5087601;28;1066;-50
2023/11/21 11:24:55;;;;;;;;;;;;;;;16.83;42.54;100443.03;5131928;27;1042;-52
2023/11/21 11:27:39;;;;;;;;;;;;;;;16.35;43.43;100440.44;5098239;28;1011;-51
2023/11/21 11:30:05;;;;;;;;;;;;;;;16.12;43.96;100439.56;5099028;28;1078;-56
2023/11/21 11:32:39;;;;;;;;;;;;;;;16.39;43.50;100431.31;5098903;28;1072;-57
2023/11/21 11:35:17;;;;;;;;;;;;;;;17.19;41.71;100432.25;5132086;27;1141;-56
2023/11/21 11:37:43;;;;;;;;;;;;;;;16.56;43.10;100431.78;5098321;28;1191;-48
2023/11/21 11:40:10;;;;;;;;;;;;;;;16.21;43.67;100425.59;5098837;28;1093;-49
2023/11/21 11:42:36;;;;;;;;;;;;;;;16.03;44.49;100431.34;5098809;28;1117;-51
2023/11/21 11:45:04;;;;;;;;;;;;;;;15.89;44.63;100434.16;5098709;28;1984;-51
2023/11/21 11:47:36;;;;;;;;;;;;;;;17.00;42.27;100433.69;5093859;28;1014;-55
2023/11/21 11:50:13;;;;;;;;;;;;;;;17.03;42.03;100422.84;5088876;28;963;-54
2023/11/21 11:52:42;;;;;;;;;;;;;;;16.49;43.08;100423.47;5079148;28;1050;-56
2023/11/21 11:55:11;;;;;;;;;;;;;;;16.21;43.94;100422.09;5078895;28;1137;-55
2023/11/21 11:57:38;;;;;;;;;;;;;;;17.11;42.19;100419.59;5094306;28;1312;-56
2023/11/21 12:00:16;;;;;;;;;;;;;;;16.66;42.84;100423.94;5084420;28;1244;-55
2023/11/21 12:02:42;;;;;;;;;;;;;;;16.29;43.77;100419.69;5088671;28;1220;-54
2023/11/21 12:05:20;;;;;;;;;;;;;;;16.92;43.85;100420.19;5090598;28;1906;-51
2023/11/21 12:07:46;;;;;;;;;;;;;;;18.45;41.01;100427.22;5098442;28;1095;-50
2023/11/21 12:10:14;;;;;;;;;;;;;;;18.41;41.22;100428.47;5098155;28;1105;-49
2023/11/21 12:12:44;;;;;;;;;;;;;;;18.54;41.65;100430.91;5098061;28;980;-48
2023/11/21 12:15:10;;;;;;;;;;;;;;;18.79;40.99;100428.75;5098073;28;1105;-48
2023/11/21 12:17:35;;;;;;;;;;;;;;;18.50;42.02;100431.31;5129828;27;1089;-49
2023/11/21 12:20:03;;;;;;;;;;;;;;;18.10;43.13;100429.22;5087757;28;1075;-48
2023/11/21 12:22:29;;;;;;;;;;;;;;;17.96;43.82;100422.44;5091897;28;1074;-49
2023/11/21 12:24:54;;;;;;;;;;;;;;;18.03;43.93;100420.09;5092757;28;1202;-58
2023/11/21 12:27:21;;;;;;;;;;;;;;;17.81;45.05;100407.75;5107030;28;1906;-57
2023/11/21 12:29:46;;;;;;;;;;;;;;;17.75;45.44;100406.41;5098057;28;1143;-56
2023/11/21 12:32:15;;;;;;;;;;;;;;;16.15;48.60;100407.47;5091250;28;1014;-56
2023/11/21 12:34:40;;;;;;;;;;;;;;;17.08;47.60;100407.34;5096102;28;1109;-62
2023/11/21 12:37:06;;;;;;;;;;;;;;;17.85;45.67;100406.53;5096737;28;1167;-57
2023/11/21 12:39:31;;;;;;;;;;;;;;;18.20;44.77;100407.19;5129540;27;1184;-65
2023/11/21 12:41:57;;;;;;;;;;;;;;;18.52;44.22;100411.53;5097094;28;1261;-52
2023/11/21 12:44:23;;;;;;;;;;;;;;;18.68;43.96;100397.75;5130529;27;1213;-53